sensor_id;sensor_type;location;lat;lon;timestamp;P1;durP1;ratioP1;P2;durP2;ratioP2
14377;SDS011;7272;53.668;9.578;2022-08-14T00:01:25;2.60;;;2.40;;
14377;SDS011;7272;53.668;9.578;2022-08-14T00:04:28;2.77;;;2.17;;
14377;SDS011;7272;53.668;9.578;2022-08-14T00:07:31;2.73;;;2.30;;
14377;SDS011;7272;53.668;9.578;2022-08-14T00:10:34;2.40;;;2.20;;
14377;SDS011;7272;53.668;9.578;2022-08-14T00:13:36;3.00;;;2.30;;
14377;SDS011;7272;53.668;9.578;2022-08-14T00:16:38;2.40;;;2.13;;
14377;SDS011;7272;53.668;9.578;2022-08-14T00:19:41;1.90;;;1.70;;
14377;SDS011;7272;53.668;9.578;2022-08-14T00:22:43;3.43;;;2.40;;
14377;SDS011;7272;53.668;9.578;2022-08-14T00:25:46;1.83;;;1.67;;
14377;SDS011;7272;53.668;9.578;2022-08-14T00:28:49;2.63;;;2.07;;
14377;SDS011;7272;53.668;9.578;2022-08-14T00:31:52;2.57;;;2.37;;
14377;SDS011;7272;53.668;9.578;2022-08-14T00:34:55;2.20;;;2.00;;
14377;SDS011;7272;53.668;9.578;2022-08-14T00:38:00;2.63;;;2.40;;
14377;SDS011;7272;53.668;9.578;2022-08-14T00:41:02;3.58;;;2.40;;
14377;SDS011;7272;53.668;9.578;2022-08-14T00:44:06;2.10;;;2.00;;
14377;SDS011;7272;53.668;9.578;2022-08-14T00:47:08;2.17;;;1.97;;
14377;SDS011;7272;53.668;9.578;2022-08-14T00:50:12;2.30;;;2.10;;
14377;SDS011;7272;53.668;9.578;2022-08-14T00:53:18;2.00;;;1.90;;
14377;SDS011;7272;53.668;9.578;2022-08-14T00:56:20;1.70;;;1.60;;
14377;SDS011;7272;53.668;9.578;2022-08-14T00:59:22;2.20;;;2.00;;
14377;SDS011;7272;53.668;9.578;2022-08-14T01:02:26;2.00;;;1.90;;
14377;SDS011;7272;53.668;9.578;2022-08-14T01:05:30;2.40;;;1.97;;
14377;SDS011;7272;53.668;9.578;2022-08-14T01:08:34;1.70;;;1.60;;
14377;SDS011;7272;53.668;9.578;2022-08-14T01:11:37;1.87;;;1.70;;
14377;SDS011;7272;53.668;9.578;2022-08-14T01:14:40;1.83;;;1.70;;
14377;SDS011;7272;53.668;9.578;2022-08-14T01:17:42;1.90;;;1.60;;
14377;SDS011;7272;53.668;9.578;2022-08-14T01:21:03;2.10;;;2.00;;
14377;SDS011;7272;53.668;9.578;2022-08-14T01:24:09;2.10;;;1.90;;
14377;SDS011;7272;53.668;9.578;2022-08-14T01:27:14;3.07;;;1.83;;
14377;SDS011;7272;53.668;9.578;2022-08-14T01:30:17;1.70;;;1.60;;
14377;SDS011;7272;53.668;9.578;2022-08-14T01:33:21;1.73;;;1.63;;
14377;SDS011;7272;53.668;9.578;2022-08-14T01:36:28;2.37;;;1.80;;
14377;SDS011;7272;53.668;9.578;2022-08-14T01:39:38;2.22;;;2.13;;
14377;SDS011;7272;53.668;9.578;2022-08-14T01:42:41;2.00;;;1.90;;
14377;SDS011;7272;53.668;9.578;2022-08-14T01:45:44;1.93;;;1.83;;
14377;SDS011;7272;53.668;9.578;2022-08-14T01:48:50;1.70;;;1.60;;
14377;SDS011;7272;53.668;9.578;2022-08-14T01:51:53;2.03;;;1.83;;
14377;SDS011;7272;53.668;9.578;2022-08-14T01:54:57;1.77;;;1.67;;
14377;SDS011;7272;53.668;9.578;2022-08-14T01:58:00;2.07;;;1.97;;
14377;SDS011;7272;53.668;9.578;2022-08-14T02:01:03;2.00;;;1.90;;
14377;SDS011;7272;53.668;9.578;2022-08-14T02:04:05;1.60;;;1.50;;
14377;SDS011;7272;53.668;9.578;2022-08-14T02:07:07;1.60;;;1.50;;
14377;SDS011;7272;53.668;9.578;2022-08-14T02:10:11;1.90;;;1.80;;
14377;SDS011;7272;53.668;9.578;2022-08-14T02:13:14;1.87;;;1.77;;
14377;SDS011;7272;53.668;9.578;2022-08-14T02:16:18;1.93;;;1.83;;
14377;SDS011;7272;53.668;9.578;2022-08-14T02:19:25;2.30;;;2.10;;
14377;SDS011;7272;53.668;9.578;2022-08-14T02:22:29;1.90;;;1.80;;
14377;SDS011;7272;53.668;9.578;2022-08-14T02:25:32;1.83;;;1.73;;
14377;SDS011;7272;53.668;9.578;2022-08-14T02:28:34;2.00;;;1.90;;
14377;SDS011;7272;53.668;9.578;2022-08-14T02:31:37;2.30;;;1.93;;
14377;SDS011;7272;53.668;9.578;2022-08-14T02:34:41;1.90;;;1.80;;
14377;SDS011;7272;53.668;9.578;2022-08-14T02:37:43;1.90;;;1.80;;
14377;SDS011;7272;53.668;9.578;2022-08-14T02:40:47;1.90;;;1.80;;
14377;SDS011;7272;53.668;9.578;2022-08-14T02:43:49;1.80;;;1.70;;
14377;SDS011;7272;53.668;9.578;2022-08-14T02:46:52;2.10;;;1.97;;
14377;SDS011;7272;53.668;9.578;2022-08-14T02:49:57;1.97;;;1.70;;
14377;SDS011;7272;53.668;9.578;2022-08-14T02:52:59;1.60;;;1.50;;
14377;SDS011;7272;53.668;9.578;2022-08-14T02:56:02;2.42;;;2.22;;
14377;SDS011;7272;53.668;9.578;2022-08-14T02:59:05;1.90;;;1.80;;
14377;SDS011;7272;53.668;9.578;2022-08-14T03:02:08;2.17;;;1.97;;
14377;SDS011;7272;53.668;9.578;2022-08-14T03:05:12;2.90;;;2.27;;
14377;SDS011;7272;53.668;9.578;2022-08-14T03:08:14;2.07;;;1.93;;
14377;SDS011;7272;53.668;9.578;2022-08-14T03:11:18;3.10;;;2.80;;
14377;SDS011;7272;53.668;9.578;2022-08-14T03:14:20;2.58;;;2.38;;
14377;SDS011;7272;53.668;9.578;2022-08-14T03:17:25;2.17;;;2.03;;
14377;SDS011;7272;53.668;9.578;2022-08-14T03:20:27;5.33;;;2.00;;
14377;SDS011;7272;53.668;9.578;2022-08-14T03:23:30;2.20;;;2.00;;
14377;SDS011;7272;53.668;9.578;2022-08-14T03:26:36;2.23;;;2.10;;
14377;SDS011;7272;53.668;9.578;2022-08-14T03:29:38;2.10;;;1.90;;
14377;SDS011;7272;53.668;9.578;2022-08-14T03:32:41;2.60;;;2.40;;
14377;SDS011;7272;53.668;9.578;2022-08-14T03:35:43;2.00;;;1.90;;
14377;SDS011;7272;53.668;9.578;2022-08-14T03:38:46;2.57;;;1.80;;
14377;SDS011;7272;53.668;9.578;2022-08-14T03:41:53;2.00;;;1.90;;
14377;SDS011;7272;53.668;9.578;2022-08-14T03:44:56;2.17;;;1.70;;
14377;SDS011;7272;53.668;9.578;2022-08-14T03:47:59;1.93;;;1.83;;
14377;SDS011;7272;53.668;9.578;2022-08-14T03:51:03;2.03;;;1.90;;
14377;SDS011;7272;53.668;9.578;2022-08-14T03:54:07;2.20;;;2.10;;
14377;SDS011;7272;53.668;9.578;2022-08-14T03:57:13;2.07;;;1.97;;
14377;SDS011;7272;53.668;9.578;2022-08-14T04:00:16;2.93;;;2.10;;
14377;SDS011;7272;53.668;9.578;2022-08-14T04:03:18;2.23;;;2.13;;
14377;SDS011;7272;53.668;9.578;2022-08-14T04:06:20;2.30;;;2.00;;
14377;SDS011;7272;53.668;9.578;2022-08-14T04:09:22;2.20;;;2.10;;
14377;SDS011;7272;53.668;9.578;2022-08-14T04:12:26;2.87;;;2.67;;
14377;SDS011;7272;53.668;9.578;2022-08-14T04:15:28;2.30;;;2.10;;
14377;SDS011;7272;53.668;9.578;2022-08-14T04:18:30;2.33;;;2.13;;
14377;SDS011;7272;53.668;9.578;2022-08-14T04:21:32;1.80;;;1.70;;
14377;SDS011;7272;53.668;9.578;2022-08-14T04:24:34;2.13;;;1.97;;
14377;SDS011;7272;53.668;9.578;2022-08-14T04:27:38;2.72;;;2.50;;
14377;SDS011;7272;53.668;9.578;2022-08-14T04:30:40;2.53;;;2.38;;
14377;SDS011;7272;53.668;9.578;2022-08-14T04:33:42;2.67;;;2.13;;
14377;SDS011;7272;53.668;9.578;2022-08-14T04:36:44;1.90;;;1.80;;
14377;SDS011;7272;53.668;9.578;2022-08-14T04:40:04;2.33;;;2.23;;
14377;SDS011;7272;53.668;9.578;2022-08-14T04:43:25;2.47;;;2.27;;
14377;SDS011;7272;53.668;9.578;2022-08-14T04:46:37;2.03;;;1.80;;
14377;SDS011;7272;53.668;9.578;2022-08-14T04:49:39;3.60;;;2.93;;
14377;SDS011;7272;53.668;9.578;2022-08-14T04:52:41;2.40;;;2.20;;
14377;SDS011;7272;53.668;9.578;2022-08-14T04:55:44;2.30;;;2.20;;
14377;SDS011;7272;53.668;9.578;2022-08-14T04:58:50;2.10;;;1.90;;
14377;SDS011;7272;53.668;9.578;2022-08-14T05:01:57;2.17;;;1.97;;
14377;SDS011;7272;53.668;9.578;2022-08-14T05:04:59;2.80;;;1.90;;
14377;SDS011;7272;53.668;9.578;2022-08-14T05:08:05;2.50;;;2.30;;
14377;SDS011;7272;53.668;9.578;2022-08-14T05:11:11;2.70;;;2.27;;
14377;SDS011;7272;53.668;9.578;2022-08-14T05:14:15;3.17;;;2.33;;
14377;SDS011;7272;53.668;9.578;2022-08-14T05:17:17;2.00;;;1.83;;
14377;SDS011;7272;53.668;9.578;2022-08-14T05:20:24;1.97;;;1.87;;
14377;SDS011;7272;53.668;9.578;2022-08-14T05:23:27;2.13;;;1.97;;
14377;SDS011;7272;53.668;9.578;2022-08-14T05:26:31;2.97;;;2.23;;
14377;SDS011;7272;53.668;9.578;2022-08-14T05:29:34;3.57;;;1.97;;
14377;SDS011;7272;53.668;9.578;2022-08-14T05:32:36;2.43;;;2.20;;
14377;SDS011;7272;53.668;9.578;2022-08-14T05:35:38;2.43;;;2.23;;
14377;SDS011;7272;53.668;9.578;2022-08-14T05:38:41;2.27;;;2.10;;
14377;SDS011;7272;53.668;9.578;2022-08-14T05:41:44;2.63;;;2.00;;
14377;SDS011;7272;53.668;9.578;2022-08-14T05:44:48;2.58;;;2.35;;
14377;SDS011;7272;53.668;9.578;2022-08-14T05:47:50;2.90;;;2.60;;
14377;SDS011;7272;53.668;9.578;2022-08-14T05:50:52;2.23;;;2.03;;
14377;SDS011;7272;53.668;9.578;2022-08-14T05:53:55;2.50;;;2.30;;
14377;SDS011;7272;53.668;9.578;2022-08-14T05:56:57;3.30;;;2.30;;
14377;SDS011;7272;53.668;9.578;2022-08-14T06:00:00;2.23;;;2.13;;
14377;SDS011;7272;53.668;9.578;2022-08-14T06:03:05;2.37;;;2.17;;
14377;SDS011;7272;53.668;9.578;2022-08-14T06:06:09;3.60;;;2.40;;
14377;SDS011;7272;53.668;9.578;2022-08-14T06:09:11;2.20;;;2.00;;
14377;SDS011;7272;53.668;9.578;2022-08-14T06:12:13;3.27;;;2.50;;
14377;SDS011;7272;53.668;9.578;2022-08-14T06:15:17;1.90;;;1.80;;
14377;SDS011;7272;53.668;9.578;2022-08-14T06:18:19;2.67;;;2.17;;
14377;SDS011;7272;53.668;9.578;2022-08-14T06:21:21;2.70;;;2.30;;
14377;SDS011;7272;53.668;9.578;2022-08-14T06:24:23;3.65;;;2.50;;
14377;SDS011;7272;53.668;9.578;2022-08-14T06:27:25;3.00;;;2.20;;
14377;SDS011;7272;53.668;9.578;2022-08-14T06:30:29;2.87;;;2.00;;
14377;SDS011;7272;53.668;9.578;2022-08-14T06:33:32;1.80;;;1.70;;
14377;SDS011;7272;53.668;9.578;2022-08-14T06:36:34;3.83;;;2.50;;
14377;SDS011;7272;53.668;9.578;2022-08-14T06:39:37;3.05;;;2.63;;
14377;SDS011;7272;53.668;9.578;2022-08-14T06:42:39;5.07;;;2.67;;
14377;SDS011;7272;53.668;9.578;2022-08-14T06:45:44;2.23;;;1.90;;
14377;SDS011;7272;53.668;9.578;2022-08-14T06:48:47;1.80;;;1.70;;
14377;SDS011;7272;53.668;9.578;2022-08-14T06:51:49;2.10;;;2.00;;
14377;SDS011;7272;53.668;9.578;2022-08-14T06:54:53;3.37;;;2.20;;
14377;SDS011;7272;53.668;9.578;2022-08-14T06:57:56;2.60;;;2.40;;
14377;SDS011;7272;53.668;9.578;2022-08-14T07:01:00;3.53;;;2.35;;
14377;SDS011;7272;53.668;9.578;2022-08-14T07:04:19;3.13;;;1.98;;
14377;SDS011;7272;53.668;9.578;2022-08-14T07:07:39;2.45;;;2.08;;
14377;SDS011;7272;53.668;9.578;2022-08-14T07:10:41;3.63;;;2.40;;
14377;SDS011;7272;53.668;9.578;2022-08-14T07:13:44;4.53;;;2.30;;
14377;SDS011;7272;53.668;9.578;2022-08-14T07:16:47;2.58;;;2.38;;
14377;SDS011;7272;53.668;9.578;2022-08-14T07:19:49;2.60;;;2.40;;
14377;SDS011;7272;53.668;9.578;2022-08-14T07:22:51;3.30;;;2.10;;
14377;SDS011;7272;53.668;9.578;2022-08-14T07:25:58;3.28;;;2.30;;
14377;SDS011;7272;53.668;9.578;2022-08-14T07:29:03;2.28;;;2.17;;
14377;SDS011;7272;53.668;9.578;2022-08-14T07:32:06;2.65;;;2.38;;
14377;SDS011;7272;53.668;9.578;2022-08-14T07:35:10;2.58;;;2.35;;
14377;SDS011;7272;53.668;9.578;2022-08-14T07:38:16;3.13;;;2.25;;
14377;SDS011;7272;53.668;9.578;2022-08-14T07:41:19;3.17;;;2.38;;
14377;SDS011;7272;53.668;9.578;2022-08-14T07:44:21;2.22;;;2.05;;
14377;SDS011;7272;53.668;9.578;2022-08-14T07:47:24;3.17;;;2.28;;
14377;SDS011;7272;53.668;9.578;2022-08-14T07:50:27;2.47;;;2.28;;
14377;SDS011;7272;53.668;9.578;2022-08-14T07:53:29;3.60;;;2.60;;
14377;SDS011;7272;53.668;9.578;2022-08-14T07:56:31;2.97;;;2.70;;
14377;SDS011;7272;53.668;9.578;2022-08-14T07:59:33;2.40;;;2.17;;
14377;SDS011;7272;53.668;9.578;2022-08-14T08:02:38;3.17;;;2.20;;
14377;SDS011;7272;53.668;9.578;2022-08-14T08:05:41;2.58;;;2.25;;
14377;SDS011;7272;53.668;9.578;2022-08-14T08:08:43;3.20;;;2.50;;
14377;SDS011;7272;53.668;9.578;2022-08-14T08:11:47;2.53;;;2.33;;
14377;SDS011;7272;53.668;9.578;2022-08-14T08:14:50;3.40;;;2.50;;
14377;SDS011;7272;53.668;9.578;2022-08-14T08:17:54;2.88;;;2.33;;
14377;SDS011;7272;53.668;9.578;2022-08-14T08:20:56;2.30;;;2.20;;
14377;SDS011;7272;53.668;9.578;2022-08-14T08:23:58;2.58;;;2.38;;
14377;SDS011;7272;53.668;9.578;2022-08-14T08:27:00;2.78;;;2.58;;
14377;SDS011;7272;53.668;9.578;2022-08-14T08:30:03;3.88;;;2.90;;
14377;SDS011;7272;53.668;9.578;2022-08-14T08:33:10;3.50;;;2.50;;
14377;SDS011;7272;53.668;9.578;2022-08-14T08:36:14;3.67;;;2.60;;
14377;SDS011;7272;53.668;9.578;2022-08-14T08:39:16;2.70;;;2.50;;
14377;SDS011;7272;53.668;9.578;2022-08-14T08:42:23;3.45;;;2.25;;
14377;SDS011;7272;53.668;9.578;2022-08-14T08:45:25;2.88;;;2.60;;
14377;SDS011;7272;53.668;9.578;2022-08-14T08:48:29;5.18;;;4.78;;
14377;SDS011;7272;53.668;9.578;2022-08-14T08:51:43;2.30;;;2.10;;
14377;SDS011;7272;53.668;9.578;2022-08-14T08:54:51;4.45;;;2.55;;
14377;SDS011;7272;53.668;9.578;2022-08-14T08:57:57;3.00;;;2.35;;
14377;SDS011;7272;53.668;9.578;2022-08-14T09:01:01;3.40;;;2.70;;
14377;SDS011;7272;53.668;9.578;2022-08-14T09:04:05;5.03;;;4.30;;
14377;SDS011;7272;53.668;9.578;2022-08-14T09:07:07;3.88;;;2.85;;
14377;SDS011;7272;53.668;9.578;2022-08-14T09:10:09;2.70;;;2.50;;
14377;SDS011;7272;53.668;9.578;2022-08-14T09:13:11;6.50;;;2.88;;
14377;SDS011;7272;53.668;9.578;2022-08-14T09:16:14;2.15;;;2.00;;
14377;SDS011;7272;53.668;9.578;2022-08-14T09:19:21;3.55;;;2.72;;
14377;SDS011;7272;53.668;9.578;2022-08-14T09:22:24;3.33;;;3.03;;
14377;SDS011;7272;53.668;9.578;2022-08-14T09:25:26;3.00;;;2.80;;
14377;SDS011;7272;53.668;9.578;2022-08-14T09:28:28;3.05;;;2.75;;
14377;SDS011;7272;53.668;9.578;2022-08-14T09:31:31;3.17;;;2.53;;
14377;SDS011;7272;53.668;9.578;2022-08-14T09:34:45;4.35;;;2.97;;
14377;SDS011;7272;53.668;9.578;2022-08-14T09:37:54;2.95;;;2.70;;
14377;SDS011;7272;53.668;9.578;2022-08-14T09:41:08;2.65;;;2.45;;
14377;SDS011;7272;53.668;9.578;2022-08-14T09:44:19;3.65;;;3.15;;
14377;SDS011;7272;53.668;9.578;2022-08-14T09:47:41;6.05;;;3.47;;
14377;SDS011;7272;53.668;9.578;2022-08-14T09:50:46;3.40;;;2.92;;
14377;SDS011;7272;53.668;9.578;2022-08-14T09:53:58;3.53;;;3.20;;
14377;SDS011;7272;53.668;9.578;2022-08-14T09:57:02;3.40;;;3.05;;
14377;SDS011;7272;53.668;9.578;2022-08-14T10:00:09;4.32;;;2.88;;
14377;SDS011;7272;53.668;9.578;2022-08-14T10:03:23;3.40;;;3.10;;
14377;SDS011;7272;53.668;9.578;2022-08-14T10:06:30;3.20;;;3.00;;
14377;SDS011;7272;53.668;9.578;2022-08-14T10:09:45;3.72;;;3.42;;
14377;SDS011;7272;53.668;9.578;2022-08-14T10:12:48;4.40;;;3.25;;
14377;SDS011;7272;53.668;9.578;2022-08-14T10:15:50;3.88;;;3.58;;
14377;SDS011;7272;53.668;9.578;2022-08-14T10:19:02;3.15;;;2.92;;
14377;SDS011;7272;53.668;9.578;2022-08-14T10:22:07;3.80;;;3.50;;
14377;SDS011;7272;53.668;9.578;2022-08-14T10:25:11;3.38;;;3.17;;
14377;SDS011;7272;53.668;9.578;2022-08-14T10:28:15;3.53;;;2.92;;
14377;SDS011;7272;53.668;9.578;2022-08-14T10:31:19;4.13;;;3.50;;
14377;SDS011;7272;53.668;9.578;2022-08-14T10:34:22;3.90;;;3.55;;
14377;SDS011;7272;53.668;9.578;2022-08-14T10:37:38;3.60;;;3.40;;
14377;SDS011;7272;53.668;9.578;2022-08-14T10:40:41;3.70;;;3.28;;
14377;SDS011;7272;53.668;9.578;2022-08-14T10:43:44;3.90;;;3.60;;
14377;SDS011;7272;53.668;9.578;2022-08-14T10:47:05;3.95;;;3.60;;
14377;SDS011;7272;53.668;9.578;2022-08-14T10:50:09;3.53;;;3.33;;
14377;SDS011;7272;53.668;9.578;2022-08-14T10:53:13;4.18;;;3.67;;
14377;SDS011;7272;53.668;9.578;2022-08-14T10:56:16;3.55;;;3.03;;
14377;SDS011;7272;53.668;9.578;2022-08-14T10:59:18;4.25;;;3.85;;
14377;SDS011;7272;53.668;9.578;2022-08-14T11:02:24;4.22;;;3.83;;
14377;SDS011;7272;53.668;9.578;2022-08-14T11:05:37;4.15;;;3.90;;
14377;SDS011;7272;53.668;9.578;2022-08-14T11:08:42;4.30;;;3.90;;
14377;SDS011;7272;53.668;9.578;2022-08-14T11:11:44;5.15;;;4.20;;
14377;SDS011;7272;53.668;9.578;2022-08-14T11:14:53;4.95;;;4.47;;
14377;SDS011;7272;53.668;9.578;2022-08-14T11:17:59;4.18;;;3.88;;
14377;SDS011;7272;53.668;9.578;2022-08-14T11:21:01;4.35;;;3.95;;
14377;SDS011;7272;53.668;9.578;2022-08-14T11:24:07;3.78;;;3.47;;
14377;SDS011;7272;53.668;9.578;2022-08-14T11:27:12;4.07;;;3.78;;
14377;SDS011;7272;53.668;9.578;2022-08-14T11:30:17;5.57;;;3.65;;
14377;SDS011;7272;53.668;9.578;2022-08-14T11:33:21;4.60;;;4.20;;
14377;SDS011;7272;53.668;9.578;2022-08-14T11:36:24;4.03;;;3.72;;
14377;SDS011;7272;53.668;9.578;2022-08-14T11:39:29;4.03;;;3.72;;
14377;SDS011;7272;53.668;9.578;2022-08-14T11:42:31;4.43;;;3.90;;
14377;SDS011;7272;53.668;9.578;2022-08-14T11:45:36;4.38;;;3.97;;
14377;SDS011;7272;53.668;9.578;2022-08-14T11:48:48;4.78;;;3.70;;
14377;SDS011;7272;53.668;9.578;2022-08-14T11:51:51;4.22;;;3.92;;
14377;SDS011;7272;53.668;9.578;2022-08-14T11:54:58;4.32;;;4.03;;
14377;SDS011;7272;53.668;9.578;2022-08-14T11:58:02;4.88;;;4.35;;
14377;SDS011;7272;53.668;9.578;2022-08-14T12:01:06;6.10;;;4.38;;
14377;SDS011;7272;53.668;9.578;2022-08-14T12:04:10;4.20;;;3.85;;
14377;SDS011;7272;53.668;9.578;2022-08-14T12:07:16;4.30;;;3.90;;
14377;SDS011;7272;53.668;9.578;2022-08-14T12:10:20;4.47;;;4.05;;
14377;SDS011;7272;53.668;9.578;2022-08-14T12:13:22;4.30;;;3.90;;
14377;SDS011;7272;53.668;9.578;2022-08-14T12:16:31;4.35;;;3.97;;
14377;SDS011;7272;53.668;9.578;2022-08-14T12:19:41;4.18;;;3.88;;
14377;SDS011;7272;53.668;9.578;2022-08-14T12:22:45;4.55;;;4.25;;
14377;SDS011;7272;53.668;9.578;2022-08-14T12:25:48;4.70;;;4.30;;
14377;SDS011;7272;53.668;9.578;2022-08-14T12:28:51;4.15;;;3.85;;
14377;SDS011;7272;53.668;9.578;2022-08-14T12:32:07;4.20;;;3.90;;
14377;SDS011;7272;53.668;9.578;2022-08-14T12:35:09;4.47;;;4.07;;
14377;SDS011;7272;53.668;9.578;2022-08-14T12:38:11;4.53;;;3.60;;
14377;SDS011;7272;53.668;9.578;2022-08-14T12:41:16;4.50;;;4.15;;
14377;SDS011;7272;53.668;9.578;2022-08-14T12:44:27;5.70;;;4.00;;
14377;SDS011;7272;53.668;9.578;2022-08-14T12:47:31;4.55;;;4.20;;
14377;SDS011;7272;53.668;9.578;2022-08-14T12:50:34;4.25;;;3.80;;
14377;SDS011;7272;53.668;9.578;2022-08-14T12:53:37;4.88;;;4.30;;
14377;SDS011;7272;53.668;9.578;2022-08-14T12:56:40;7.63;;;4.53;;
14377;SDS011;7272;53.668;9.578;2022-08-14T12:59:43;5.30;;;4.38;;
14377;SDS011;7272;53.668;9.578;2022-08-14T13:02:46;4.47;;;4.07;;
14377;SDS011;7272;53.668;9.578;2022-08-14T13:05:51;4.32;;;4.03;;
14377;SDS011;7272;53.668;9.578;2022-08-14T13:08:53;4.80;;;4.35;;
14377;SDS011;7272;53.668;9.578;2022-08-14T13:11:59;4.88;;;4.38;;
14377;SDS011;7272;53.668;9.578;2022-08-14T13:15:04;4.70;;;4.30;;
14377;SDS011;7272;53.668;9.578;2022-08-14T13:18:08;5.45;;;4.00;;
14377;SDS011;7272;53.668;9.578;2022-08-14T13:21:11;5.57;;;5.00;;
14377;SDS011;7272;53.668;9.578;2022-08-14T13:24:14;46.80;;;9.75;;
14377;SDS011;7272;53.668;9.578;2022-08-14T13:27:18;5.07;;;4.68;;
14377;SDS011;7272;53.668;9.578;2022-08-14T13:30:22;5.10;;;4.70;;
14377;SDS011;7272;53.668;9.578;2022-08-14T13:33:25;4.97;;;4.50;;
14377;SDS011;7272;53.668;9.578;2022-08-14T13:36:29;5.30;;;4.80;;
14377;SDS011;7272;53.668;9.578;2022-08-14T13:39:31;4.78;;;4.32;;
14377;SDS011;7272;53.668;9.578;2022-08-14T13:42:37;5.03;;;4.53;;
14377;SDS011;7272;53.668;9.578;2022-08-14T13:45:42;5.63;;;4.55;;
14377;SDS011;7272;53.668;9.578;2022-08-14T13:48:46;4.90;;;4.43;;
14377;SDS011;7272;53.668;9.578;2022-08-14T13:51:51;4.80;;;4.50;;
14377;SDS011;7272;53.668;9.578;2022-08-14T13:54:58;4.88;;;4.50;;
14377;SDS011;7272;53.668;9.578;2022-08-14T13:58:06;4.93;;;4.53;;
14377;SDS011;7272;53.668;9.578;2022-08-14T14:01:09;5.18;;;4.78;;
14377;SDS011;7272;53.668;9.578;2022-08-14T14:04:15;5.18;;;4.68;;
14377;SDS011;7272;53.668;9.578;2022-08-14T14:07:19;4.75;;;4.45;;
14377;SDS011;7272;53.668;9.578;2022-08-14T14:10:21;4.60;;;4.20;;
14377;SDS011;7272;53.668;9.578;2022-08-14T14:13:26;5.13;;;4.70;;
14377;SDS011;7272;53.668;9.578;2022-08-14T14:16:28;4.57;;;4.28;;
14377;SDS011;7272;53.668;9.578;2022-08-14T14:19:30;4.57;;;4.18;;
14377;SDS011;7272;53.668;9.578;2022-08-14T14:22:34;4.47;;;4.10;;
14377;SDS011;7272;53.668;9.578;2022-08-14T14:25:40;4.50;;;4.20;;
14377;SDS011;7272;53.668;9.578;2022-08-14T14:28:47;4.80;;;4.40;;
14377;SDS011;7272;53.668;9.578;2022-08-14T14:31:50;4.53;;;4.18;;
14377;SDS011;7272;53.668;9.578;2022-08-14T14:34:53;5.07;;;4.68;;
14377;SDS011;7272;53.668;9.578;2022-08-14T14:37:57;5.40;;;4.97;;
14377;SDS011;7272;53.668;9.578;2022-08-14T14:41:00;5.40;;;4.57;;
14377;SDS011;7272;53.668;9.578;2022-08-14T14:44:05;4.38;;;4.07;;
14377;SDS011;7272;53.668;9.578;2022-08-14T14:47:08;4.95;;;4.55;;
14377;SDS011;7272;53.668;9.578;2022-08-14T14:50:12;4.70;;;4.30;;
14377;SDS011;7272;53.668;9.578;2022-08-14T14:53:14;5.68;;;4.47;;
14377;SDS011;7272;53.668;9.578;2022-08-14T14:56:16;4.68;;;4.28;;
14377;SDS011;7272;53.668;9.578;2022-08-14T14:59:21;4.63;;;4.13;;
14377;SDS011;7272;53.668;9.578;2022-08-14T15:02:25;4.15;;;3.70;;
14377;SDS011;7272;53.668;9.578;2022-08-14T15:05:34;4.28;;;3.88;;
14377;SDS011;7272;53.668;9.578;2022-08-14T15:08:36;4.70;;;4.30;;
14377;SDS011;7272;53.668;9.578;2022-08-14T15:11:39;6.03;;;4.15;;
14377;SDS011;7272;53.668;9.578;2022-08-14T15:14:43;6.03;;;4.15;;
14377;SDS011;7272;53.668;9.578;2022-08-14T15:17:45;5.33;;;4.20;;
14377;SDS011;7272;53.668;9.578;2022-08-14T15:20:47;4.13;;;3.83;;
14377;SDS011;7272;53.668;9.578;2022-08-14T15:23:53;4.25;;;3.95;;
14377;SDS011;7272;53.668;9.578;2022-08-14T15:26:55;3.90;;;3.60;;
14377;SDS011;7272;53.668;9.578;2022-08-14T15:29:58;4.30;;;3.83;;
14377;SDS011;7272;53.668;9.578;2022-08-14T15:33:00;5.47;;;4.28;;
14377;SDS011;7272;53.668;9.578;2022-08-14T15:36:03;7.72;;;4.60;;
14377;SDS011;7272;53.668;9.578;2022-08-14T15:39:05;4.95;;;4.50;;
14377;SDS011;7272;53.668;9.578;2022-08-14T15:42:08;4.07;;;3.60;;
14377;SDS011;7272;53.668;9.578;2022-08-14T15:45:11;4.10;;;3.90;;
14377;SDS011;7272;53.668;9.578;2022-08-14T15:48:16;4.20;;;3.90;;
14377;SDS011;7272;53.668;9.578;2022-08-14T15:51:18;4.28;;;3.88;;
14377;SDS011;7272;53.668;9.578;2022-08-14T15:54:20;4.50;;;4.00;;
14377;SDS011;7272;53.668;9.578;2022-08-14T15:57:23;4.60;;;3.85;;
14377;SDS011;7272;53.668;9.578;2022-08-14T16:00:26;3.80;;;3.50;;
14377;SDS011;7272;53.668;9.578;2022-08-14T16:03:46;4.00;;;3.70;;
14377;SDS011;7272;53.668;9.578;2022-08-14T16:06:48;4.65;;;3.78;;
14377;SDS011;7272;53.668;9.578;2022-08-14T16:09:51;6.93;;;3.90;;
14377;SDS011;7272;53.668;9.578;2022-08-14T16:12:53;4.28;;;3.33;;
14377;SDS011;7272;53.668;9.578;2022-08-14T16:15:56;4.35;;;4.00;;
14377;SDS011;7272;53.668;9.578;2022-08-14T16:18:58;3.83;;;3.53;;
14377;SDS011;7272;53.668;9.578;2022-08-14T16:22:02;4.75;;;3.88;;
14377;SDS011;7272;53.668;9.578;2022-08-14T16:25:08;3.95;;;3.30;;
14377;SDS011;7272;53.668;9.578;2022-08-14T16:28:11;5.75;;;3.42;;
14377;SDS011;7272;53.668;9.578;2022-08-14T16:31:14;3.60;;;3.40;;
14377;SDS011;7272;53.668;9.578;2022-08-14T16:34:18;3.88;;;3.30;;
14377;SDS011;7272;53.668;9.578;2022-08-14T16:37:20;3.28;;;3.03;;
14377;SDS011;7272;53.668;9.578;2022-08-14T16:40:22;4.50;;;2.97;;
14377;SDS011;7272;53.668;9.578;2022-08-14T16:43:25;5.47;;;3.13;;
14377;SDS011;7272;53.668;9.578;2022-08-14T16:46:29;3.95;;;3.30;;
14377;SDS011;7272;53.668;9.578;2022-08-14T16:49:34;3.17;;;2.90;;
14377;SDS011;7272;53.668;9.578;2022-08-14T16:52:36;3.55;;;3.22;;
14377;SDS011;7272;53.668;9.578;2022-08-14T16:55:39;3.58;;;2.60;;
14377;SDS011;7272;53.668;9.578;2022-08-14T16:58:41;3.10;;;2.90;;
14377;SDS011;7272;53.668;9.578;2022-08-14T17:01:53;2.90;;;2.70;;
14377;SDS011;7272;53.668;9.578;2022-08-14T17:08:18;3.42;;;3.05;;
14377;SDS011;7272;53.668;9.578;2022-08-14T17:11:22;3.97;;;2.67;;
14377;SDS011;7272;53.668;9.578;2022-08-14T17:14:24;3.00;;;2.80;;
14377;SDS011;7272;53.668;9.578;2022-08-14T17:17:48;3.88;;;3.10;;
14377;SDS011;7272;53.668;9.578;2022-08-14T17:20:51;3.55;;;2.60;;
14377;SDS011;7272;53.668;9.578;2022-08-14T17:24:16;4.10;;;2.45;;
14377;SDS011;7272;53.668;9.578;2022-08-14T17:27:19;2.97;;;2.65;;
14377;SDS011;7272;53.668;9.578;2022-08-14T17:30:22;4.68;;;2.95;;
14377;SDS011;7272;53.668;9.578;2022-08-14T17:33:27;3.30;;;2.40;;
14377;SDS011;7272;53.668;9.578;2022-08-14T17:36:33;2.67;;;2.22;;
14377;SDS011;7272;53.668;9.578;2022-08-14T17:39:35;2.85;;;2.35;;
14377;SDS011;7272;53.668;9.578;2022-08-14T17:42:47;2.55;;;2.35;;
14377;SDS011;7272;53.668;9.578;2022-08-14T17:45:54;5.32;;;2.63;;
14377;SDS011;7272;53.668;9.578;2022-08-14T17:49:02;4.30;;;2.30;;
14377;SDS011;7272;53.668;9.578;2022-08-14T17:52:07;4.03;;;2.58;;
14377;SDS011;7272;53.668;9.578;2022-08-14T17:55:11;2.80;;;2.60;;
14377;SDS011;7272;53.668;9.578;2022-08-14T17:58:15;2.88;;;2.50;;
14377;SDS011;7272;53.668;9.578;2022-08-14T18:01:19;4.80;;;3.10;;
14377;SDS011;7272;53.668;9.578;2022-08-14T18:04:23;3.85;;;3.03;;
14377;SDS011;7272;53.668;9.578;2022-08-14T18:07:27;2.78;;;2.58;;
14377;SDS011;7272;53.668;9.578;2022-08-14T18:10:29;3.78;;;3.13;;
14377;SDS011;7272;53.668;9.578;2022-08-14T18:13:31;2.95;;;2.47;;
14377;SDS011;7272;53.668;9.578;2022-08-14T18:16:35;2.75;;;2.55;;
14377;SDS011;7272;53.668;9.578;2022-08-14T18:19:40;4.10;;;2.53;;
14377;SDS011;7272;53.668;9.578;2022-08-14T18:22:43;5.57;;;2.65;;
14377;SDS011;7272;53.668;9.578;2022-08-14T18:25:46;4.88;;;2.80;;
14377;SDS011;7272;53.668;9.578;2022-08-14T18:28:51;2.88;;;2.67;;
14377;SDS011;7272;53.668;9.578;2022-08-14T18:31:54;4.20;;;3.00;;
14377;SDS011;7272;53.668;9.578;2022-08-14T18:34:58;3.13;;;2.80;;
14377;SDS011;7272;53.668;9.578;2022-08-14T18:38:13;3.03;;;2.72;;
14377;SDS011;7272;53.668;9.578;2022-08-14T18:41:24;4.20;;;2.75;;
14377;SDS011;7272;53.668;9.578;2022-08-14T18:48:25;4.07;;;3.20;;
14377;SDS011;7272;53.668;9.578;2022-08-14T18:51:30;5.72;;;3.20;;
14377;SDS011;7272;53.668;9.578;2022-08-14T18:54:34;3.10;;;2.78;;